DLH412 EDDM-KEWR
Flight info
| Callsign | DLH412 |
|---|---|
| Flight time | N/A |
| Altitude | 24000 |
| Route | GIVMI1N GIVMI Y101 OSBIT L984 BAMTO Z93 KOSEK Z104 MISGI/N0475F380 L608 LIRSU DCT LNO N852 TERLA L608 DENUT L610 KOPUL Q60 OKSAW DCT FELCA DCT FADZU DCT BANBA DCT TOBOR/M084F390 DCT 53N020W 5330N03000W 53N040W 51N050W DCT ALLRY/N0487F400 N484E ANATI DCT IMORI DCT HANAA FLOSI4 |
| Aircraft | A359/H-SADE2E3GHIJ1J2J3J4J5M1P2RWXYZ/LB1D1 |
Departure
| Time | N/A |
|---|---|
| Airport | Munich Airport (EDDM) |
Arrival
| Time | 2026-04-24 05:55 |
|---|---|
| Airport | Newark Liberty International Airport (KEWR) |
| Time | Latitude | Longitude | Altitude | Speed | Heading |
|---|---|---|---|---|---|
| 2026-04-24 05:21 | 43.65825 | -73.36644 | 39965 ft | 505 kts | 210° |
| 2026-04-24 05:22 | 43.59287 | -73.40166 | 39958 ft | 504 kts | 210° |
| 2026-04-24 05:22 | 43.52788 | -73.43658 | 39947 ft | 504 kts | 210° |
| 2026-04-24 05:23 | 43.47310 | -73.46596 | 39944 ft | 504 kts | 210° |
| 2026-04-24 05:23 | 43.40769 | -73.50096 | 39931 ft | 504 kts | 210° |
| 2026-04-24 05:24 | 43.34226 | -73.53590 | 39945 ft | 505 kts | 210° |
| 2026-04-24 05:24 | 43.27680 | -73.57077 | 39942 ft | 505 kts | 210° |
| 2026-04-24 05:25 | 43.21134 | -73.60557 | 39936 ft | 505 kts | 210° |
| 2026-04-24 05:25 | 43.14461 | -73.63713 | 39943 ft | 511 kts | 205° |
| 2026-04-24 05:26 | 43.07650 | -73.66494 | 39926 ft | 511 kts | 205° |
| 2026-04-24 05:26 | 43.00865 | -73.69322 | 39939 ft | 509 kts | 206° |
| 2026-04-24 05:27 | 42.94106 | -73.72165 | 39936 ft | 508 kts | 206° |
| 2026-04-24 05:27 | 42.87348 | -73.75010 | 39920 ft | 508 kts | 206° |
| 2026-04-24 05:28 | 42.80609 | -73.77843 | 39915 ft | 506 kts | 206° |
| 2026-04-24 05:28 | 42.73899 | -73.80660 | 39914 ft | 504 kts | 206° |
| 2026-04-24 05:29 | 42.67254 | -73.83635 | 39904 ft | 502 kts | 207° |
| 2026-04-24 05:29 | 42.60633 | -73.86627 | 39919 ft | 501 kts | 207° |
| 2026-04-24 05:30 | 42.54016 | -73.89595 | 39918 ft | 501 kts | 207° |
| 2026-04-24 05:30 | 42.47399 | -73.92551 | 39905 ft | 500 kts | 207° |
| 2026-04-24 05:31 | 42.40800 | -73.95491 | 39924 ft | 498 kts | 207° |
| 2026-04-24 05:31 | 42.37517 | -73.96949 | 39746 ft | 493 kts | 207° |
| 2026-04-24 05:31 | 42.34250 | -73.98400 | 38991 ft | 497 kts | 208° |
| 2026-04-24 05:31 | 42.30945 | -73.99874 | 38034 ft | 503 kts | 208° |
| 2026-04-24 05:32 | 42.27603 | -74.01361 | 37013 ft | 507 kts | 207° |
| 2026-04-24 05:32 | 42.24242 | -74.02849 | 36183 ft | 509 kts | 207° |
| 2026-04-24 05:32 | 42.20876 | -74.04341 | 35365 ft | 510 kts | 207° |
| 2026-04-24 05:32 | 42.17499 | -74.05832 | 34611 ft | 511 kts | 206° |
| 2026-04-24 05:33 | 42.14125 | -74.07317 | 33958 ft | 509 kts | 206° |
| 2026-04-24 05:33 | 42.10768 | -74.08793 | 33273 ft | 506 kts | 206° |
| 2026-04-24 05:33 | 42.07433 | -74.10258 | 32675 ft | 502 kts | 206° |
| 2026-04-24 05:34 | 42.00842 | -74.13154 | 31452 ft | 495 kts | 206° |
| 2026-04-24 05:34 | 41.97586 | -74.14579 | 30884 ft | 491 kts | 206° |
| 2026-04-24 05:34 | 41.94352 | -74.15993 | 30336 ft | 487 kts | 206° |
| 2026-04-24 05:34 | 41.91135 | -74.17400 | 29738 ft | 484 kts | 206° |
| 2026-04-24 05:35 | 41.87950 | -74.18791 | 29187 ft | 479 kts | 206° |
| 2026-04-24 05:35 | 41.84795 | -74.20169 | 28610 ft | 475 kts | 206° |
| 2026-04-24 05:35 | 41.81666 | -74.21540 | 27983 ft | 471 kts | 206° |
| 2026-04-24 05:35 | 41.78558 | -74.22894 | 27432 ft | 468 kts | 206° |
| 2026-04-24 05:36 | 41.75474 | -74.24236 | 26876 ft | 464 kts | 206° |
| 2026-04-24 05:36 | 41.72417 | -74.25565 | 26339 ft | 461 kts | 206° |
| 2026-04-24 05:36 | 41.69378 | -74.26886 | 25802 ft | 457 kts | 206° |
| 2026-04-24 05:36 | 41.66364 | -74.28196 | 25248 ft | 454 kts | 206° |
| 2026-04-24 05:37 | 41.63369 | -74.29495 | 24703 ft | 451 kts | 206° |
| 2026-04-24 05:37 | 41.60397 | -74.30783 | 24201 ft | 448 kts | 206° |
| 2026-04-24 05:37 | 41.57444 | -74.32062 | 23684 ft | 445 kts | 206° |
| 2026-04-24 05:37 | 41.54510 | -74.33331 | 23087 ft | 442 kts | 206° |
| 2026-04-24 05:38 | 41.51600 | -74.34591 | 22499 ft | 438 kts | 206° |
| 2026-04-24 05:38 | 41.48710 | -74.35838 | 21897 ft | 435 kts | 206° |
| 2026-04-24 05:38 | 41.45846 | -74.37073 | 21336 ft | 431 kts | 205° |
| 2026-04-24 05:38 | 41.43006 | -74.38296 | 20756 ft | 428 kts | 205° |
| 2026-04-24 05:39 | 41.40181 | -74.39517 | 20160 ft | 426 kts | 206° |
| 2026-04-24 05:39 | 41.37373 | -74.40728 | 19613 ft | 423 kts | 205° |
| 2026-04-24 05:39 | 41.34578 | -74.41928 | 19049 ft | 421 kts | 205° |
| 2026-04-24 05:39 | 41.31803 | -74.43119 | 18486 ft | 418 kts | 205° |
| 2026-04-24 05:40 | 41.29044 | -74.44301 | 17941 ft | 415 kts | 205° |
| 2026-04-24 05:40 | 41.26308 | -74.45480 | 17367 ft | 411 kts | 205° |
| 2026-04-24 05:40 | 41.23598 | -74.46638 | 16816 ft | 408 kts | 205° |
| 2026-04-24 05:40 | 41.20909 | -74.47786 | 16244 ft | 404 kts | 205° |
| 2026-04-24 05:41 | 41.18244 | -74.48922 | 15730 ft | 400 kts | 205° |
| 2026-04-24 05:41 | 41.15611 | -74.50047 | 15204 ft | 396 kts | 205° |
| 2026-04-24 05:41 | 41.12996 | -74.51165 | 14668 ft | 392 kts | 205° |
| 2026-04-24 05:41 | 41.10417 | -74.52262 | 14205 ft | 387 kts | 205° |
| 2026-04-24 05:42 | 41.07855 | -74.53344 | 13653 ft | 386 kts | 204° |
| 2026-04-24 05:42 | 41.05193 | -74.53997 | 13075 ft | 391 kts | 192° |
| 2026-04-24 05:42 | 41.02495 | -74.54278 | 12563 ft | 387 kts | 190° |
| 2026-04-24 05:42 | 40.99817 | -74.54506 | 12009 ft | 383 kts | 190° |
| 2026-04-24 05:43 | 40.97195 | -74.54728 | 11694 ft | 368 kts | 190° |
| 2026-04-24 05:43 | 40.94724 | -74.54935 | 11365 ft | 344 kts | 191° |
| 2026-04-24 05:43 | 40.92393 | -74.55138 | 10877 ft | 329 kts | 191° |
| 2026-04-24 05:43 | 40.90234 | -74.55335 | 10261 ft | 321 kts | 192° |
| 2026-04-24 05:44 | 40.88025 | -74.55541 | 9593 ft | 315 kts | 192° |
| 2026-04-24 05:44 | 40.85860 | -74.55743 | 8891 ft | 308 kts | 192° |
| 2026-04-24 05:44 | 40.83739 | -74.55935 | 8273 ft | 306 kts | 191° |
| 2026-04-24 05:44 | 40.81586 | -74.55817 | 7780 ft | 311 kts | 181° |
| 2026-04-24 05:45 | 40.79460 | -74.55458 | 7501 ft | 304 kts | 178° |
| 2026-04-24 05:45 | 40.77399 | -74.55051 | 7255 ft | 296 kts | 178° |
| 2026-04-24 05:45 | 40.75379 | -74.54645 | 7006 ft | 292 kts | 178° |
| 2026-04-24 05:45 | 40.73382 | -74.54245 | 6754 ft | 289 kts | 178° |
| 2026-04-24 05:46 | 40.71403 | -74.53855 | 6519 ft | 286 kts | 177° |
| 2026-04-24 05:46 | 40.69445 | -74.53493 | 6281 ft | 283 kts | 177° |
| 2026-04-24 05:46 | 40.67504 | -74.53145 | 6021 ft | 280 kts | 178° |
| 2026-04-24 05:46 | 40.65576 | -74.52811 | 5761 ft | 279 kts | 178° |
| 2026-04-24 05:47 | 40.63659 | -74.52495 | 5512 ft | 277 kts | 177° |
| 2026-04-24 05:47 | 40.61751 | -74.52201 | 5261 ft | 275 kts | 177° |
| 2026-04-24 05:47 | 40.59855 | -74.51927 | 5053 ft | 274 kts | 178° |
| 2026-04-24 05:47 | 40.57963 | -74.51668 | 4880 ft | 273 kts | 177° |
| 2026-04-24 05:48 | 40.56106 | -74.51138 | 4701 ft | 277 kts | 159° |
| 2026-04-24 05:48 | 40.54567 | -74.49626 | 4533 ft | 279 kts | 131° |
| 2026-04-24 05:48 | 40.53518 | -74.47479 | 4352 ft | 280 kts | 119° |
| 2026-04-24 05:48 | 40.52615 | -74.45217 | 4184 ft | 279 kts | 117° |
| 2026-04-24 05:49 | 40.51726 | -74.42958 | 4013 ft | 277 kts | 117° |
| 2026-04-24 05:49 | 40.50834 | -74.40709 | 3995 ft | 277 kts | 117° |
| 2026-04-24 05:49 | 40.49971 | -74.38517 | 3986 ft | 262 kts | 116° |
| 2026-04-24 05:49 | 40.49555 | -74.36295 | 3987 ft | 243 kts | 88° |
| 2026-04-24 05:50 | 40.49714 | -74.34170 | 3989 ft | 227 kts | 78° |
| 2026-04-24 05:50 | 40.49961 | -74.32135 | 4006 ft | 224 kts | 78° |
| 2026-04-24 05:50 | 40.50259 | -74.30193 | 3993 ft | 207 kts | 66° |
| 2026-04-24 05:50 | 40.51055 | -74.28715 | 3952 ft | 194 kts | 41° |
| 2026-04-24 05:51 | 40.52141 | -74.27729 | 3747 ft | 188 kts | 21° |
| 2026-04-24 05:51 | 40.53330 | -74.27035 | 3433 ft | 187 kts | 21° |
| 2026-04-24 05:51 | 40.54502 | -74.26281 | 3131 ft | 188 kts | 24° |
| 2026-04-24 05:51 | 40.55667 | -74.25522 | 2853 ft | 185 kts | 24° |
| 2026-04-24 05:52 | 40.56814 | -74.24792 | 2601 ft | 182 kts | 24° |
| 2026-04-24 05:52 | 40.57945 | -74.24072 | 2357 ft | 179 kts | 24° |
| 2026-04-24 05:52 | 40.59053 | -74.23363 | 2117 ft | 174 kts | 24° |
| 2026-04-24 05:52 | 40.60114 | -74.22686 | 1872 ft | 165 kts | 24° |
| 2026-04-24 05:53 | 40.61131 | -74.22038 | 1660 ft | 158 kts | 24° |
| 2026-04-24 05:53 | 40.62086 | -74.21426 | 1442 ft | 147 kts | 24° |
| 2026-04-24 05:53 | 40.62984 | -74.20853 | 1243 ft | 140 kts | 24° |
| 2026-04-24 05:53 | 40.63824 | -74.20317 | 1061 ft | 131 kts | 24° |
| 2026-04-24 05:54 | 40.64643 | -74.19794 | 884 ft | 129 kts | 25° |
| 2026-04-24 05:54 | 40.65446 | -74.19281 | 720 ft | 131 kts | 25° |
| 2026-04-24 05:54 | 40.66280 | -74.18740 | 486 ft | 132 kts | 24° |
| 2026-04-24 05:54 | 40.67103 | -74.18218 | 274 ft | 131 kts | 23° |
| 2026-04-24 05:55 | 40.67922 | -74.17701 | 89 ft | 129 kts | 22° |
| 2026-04-24 05:55 | 40.68717 | -74.17196 | 30 ft | 117 kts | 26° |
| 2026-04-24 05:55 | 40.69248 | -74.16882 | 28 ft | 51 kts | 11° |
| 2026-04-24 05:55 | 40.69409 | -74.16871 | 29 ft | 16 kts | 357° |
| 2026-04-24 05:56 | 40.69510 | -74.16920 | 28 ft | 16 kts | 296° |
| 2026-04-24 05:56 | 40.69452 | -74.17009 | 28 ft | 15 kts | 207° |
| 2026-04-24 05:56 | 40.69348 | -74.17075 | 28 ft | 18 kts | 206° |
| 2026-04-24 05:56 | 40.69227 | -74.17152 | 28 ft | 21 kts | 206° |
| 2026-04-24 05:57 | 40.69128 | -74.17215 | 27 ft | 3 kts | 206° |
| 2026-04-24 05:57 | 40.69114 | -74.17245 | 28 ft | 6 kts | 264° |
| 2026-04-24 05:57 | 40.69108 | -74.17325 | 28 ft | 8 kts | 273° |
| 2026-04-24 05:57 | 40.69129 | -74.17355 | 28 ft | 0 kts | 323° |
| 2026-04-24 05:58 | 40.69130 | -74.17356 | 28 ft | 0 kts | 323° |
| 2026-04-24 05:58 | 40.69135 | -74.17361 | 28 ft | 3 kts | 322° |
| 2026-04-24 05:58 | 40.69141 | -74.17367 | 28 ft | 0 kts | 322° |
| 2026-04-24 05:59 | 40.69142 | -74.17368 | 28 ft | 2 kts | 322° |